createdAt,value
2023-05-07T00:01:02.982Z,2.20
2023-05-07T00:03:15.076Z,1.77
2023-05-07T00:05:24.586Z,1.70
2023-05-07T00:07:33.863Z,2.00
2023-05-07T00:09:43.137Z,1.73
2023-05-07T00:11:51.714Z,2.00
2023-05-07T00:14:01.036Z,2.10
2023-05-07T00:16:10.072Z,2.00
2023-05-07T00:18:23.575Z,2.20
2023-05-07T00:20:33.936Z,2.07
2023-05-07T00:22:44.745Z,1.90
2023-05-07T00:24:53.541Z,2.10
2023-05-07T00:27:02.350Z,1.60
2023-05-07T00:29:11.568Z,2.30
2023-05-07T00:31:20.733Z,2.30
2023-05-07T00:33:33.585Z,2.03
2023-05-07T00:35:42.650Z,1.90
2023-05-07T00:37:51.482Z,1.97
2023-05-07T00:40:00.469Z,1.90
2023-05-07T00:42:09.300Z,1.70
2023-05-07T00:44:19.353Z,2.07
2023-05-07T00:46:28.785Z,1.90
2023-05-07T00:48:39.182Z,2.20
2023-05-07T00:50:49.326Z,2.00
2023-05-07T00:52:58.149Z,1.83
2023-05-07T00:55:08.164Z,2.07
2023-05-07T00:57:18.194Z,2.23
2023-05-07T00:59:27.613Z,2.27
2023-05-07T01:01:37.913Z,1.60
2023-05-07T01:03:48.032Z,2.20
2023-05-07T01:05:57.667Z,2.00
2023-05-07T01:08:07.713Z,1.80
2023-05-07T01:10:17.584Z,2.00
2023-05-07T01:12:27.318Z,1.80
2023-05-07T01:14:36.657Z,1.87
2023-05-07T01:16:45.893Z,1.70
2023-05-07T01:18:56.289Z,2.43
2023-05-07T01:21:07.107Z,2.00
2023-05-07T01:23:18.770Z,2.23
2023-05-07T01:25:27.982Z,1.90
2023-05-07T01:27:37.771Z,2.20
2023-05-07T01:29:46.428Z,2.27
2023-05-07T01:31:55.999Z,1.67
2023-05-07T01:34:05.738Z,1.87
2023-05-07T01:36:15.103Z,2.03
2023-05-07T01:38:25.980Z,1.93
2023-05-07T01:40:35.309Z,2.13
2023-05-07T01:42:44.759Z,1.97
2023-05-07T01:44:53.542Z,1.97
2023-05-07T01:47:02.646Z,1.67
2023-05-07T01:49:11.780Z,1.90
2023-05-07T01:51:21.366Z,2.20
2023-05-07T01:53:32.366Z,1.90
2023-05-07T01:55:41.450Z,2.30
2023-05-07T01:57:50.645Z,2.20
2023-05-07T01:59:59.708Z,1.80
2023-05-07T02:02:08.265Z,1.70
2023-05-07T02:04:17.683Z,1.87
2023-05-07T02:06:26.209Z,1.93
2023-05-07T02:08:36.951Z,1.90
2023-05-07T02:10:45.594Z,2.00
2023-05-07T02:12:54.608Z,2.07
2023-05-07T02:15:03.338Z,2.17
2023-05-07T02:17:12.322Z,1.87
2023-05-07T02:19:22.209Z,2.07
2023-05-07T02:21:31.393Z,1.90
2023-05-07T02:23:41.442Z,1.73
2023-05-07T02:25:50.359Z,1.80
2023-05-07T02:27:59.300Z,2.20
2023-05-07T02:30:09.088Z,2.30
2023-05-07T02:32:18.186Z,1.80
2023-05-07T02:34:27.043Z,2.07
2023-05-07T02:36:36.033Z,2.10
2023-05-07T02:38:47.104Z,2.00
2023-05-07T02:40:55.787Z,1.77
2023-05-07T02:43:04.793Z,2.03
2023-05-07T02:45:13.639Z,2.20
2023-05-07T02:47:22.276Z,1.90
2023-05-07T02:49:31.080Z,1.80
2023-05-07T02:51:39.695Z,1.70
2023-05-07T02:53:50.200Z,1.90
2023-05-07T02:55:59.291Z,2.00
2023-05-07T02:58:08.156Z,2.37
2023-05-07T03:00:18.979Z,1.90
2023-05-07T03:02:27.740Z,2.10
2023-05-07T03:04:36.694Z,2.27
2023-05-07T03:06:45.885Z,2.40
2023-05-07T03:08:56.047Z,2.30
2023-05-07T03:11:04.980Z,2.23
2023-05-07T03:13:14.143Z,2.10
2023-05-07T03:15:23.185Z,2.07
2023-05-07T03:17:32.142Z,2.10
2023-05-07T03:19:40.925Z,2.17
2023-05-07T03:21:49.564Z,2.13
2023-05-07T03:23:59.982Z,2.27
2023-05-07T03:26:08.565Z,2.60
2023-05-07T03:28:17.531Z,1.93
2023-05-07T03:30:26.418Z,2.13
2023-05-07T03:32:35.120Z,2.73
2023-05-07T03:34:43.818Z,1.93
2023-05-07T03:36:52.745Z,2.37
2023-05-07T03:39:03.217Z,1.90
2023-05-07T03:41:12.232Z,2.00
2023-05-07T03:43:21.094Z,1.83
2023-05-07T03:45:29.761Z,2.50
2023-05-07T03:47:38.290Z,2.20
2023-05-07T03:49:47.517Z,1.80
2023-05-07T03:51:56.803Z,2.30
2023-05-07T03:54:07.052Z,1.90
2023-05-07T03:56:17.724Z,2.10
2023-05-07T03:58:27.060Z,2.27
2023-05-07T04:00:39.372Z,2.40
2023-05-07T04:02:48.210Z,2.20
2023-05-07T04:04:57.298Z,2.23
2023-05-07T04:07:06.536Z,2.13
2023-05-07T04:09:16.985Z,2.33
2023-05-07T04:11:26.007Z,2.07
2023-05-07T04:13:35.020Z,1.97
2023-05-07T04:15:44.234Z,2.10
2023-05-07T04:17:53.136Z,1.90
2023-05-07T04:20:02.493Z,2.17
2023-05-07T04:22:13.163Z,2.30
2023-05-07T04:24:23.651Z,2.33
2023-05-07T04:26:33.255Z,2.10
2023-05-07T04:28:42.704Z,2.30
2023-05-07T04:30:51.379Z,1.80
2023-05-07T04:33:00.071Z,2.00
2023-05-07T04:35:09.929Z,2.00
2023-05-07T04:37:18.581Z,2.40
2023-05-07T04:39:29.060Z,2.07
2023-05-07T04:41:38.781Z,2.10
2023-05-07T04:43:47.454Z,2.40
2023-05-07T04:45:56.741Z,2.20
2023-05-07T04:48:05.925Z,2.17
2023-05-07T04:50:14.580Z,2.37
2023-05-07T04:52:24.405Z,2.50
2023-05-07T04:54:35.632Z,2.17
2023-05-07T04:56:46.290Z,2.40
2023-05-07T04:58:54.992Z,2.70
2023-05-07T05:01:04.072Z,2.63
2023-05-07T05:03:12.936Z,2.87
2023-05-07T05:05:22.344Z,2.47
2023-05-07T05:07:31.320Z,2.07
2023-05-07T05:09:41.803Z,2.10
2023-05-07T05:11:51.263Z,2.43
2023-05-07T05:14:00.428Z,2.70
2023-05-07T05:16:09.713Z,1.90
2023-05-07T05:18:18.569Z,2.03
2023-05-07T05:20:27.421Z,1.90
2023-05-07T05:22:36.172Z,2.10
2023-05-07T05:24:46.544Z,2.00
2023-05-07T05:26:57.356Z,2.00
2023-05-07T05:29:06.091Z,1.60
2023-05-07T05:31:15.348Z,1.63
2023-05-07T05:33:24.032Z,1.83
2023-05-07T05:35:33.387Z,1.70
2023-05-07T05:37:42.022Z,1.60
2023-05-07T05:39:52.450Z,2.03
2023-05-07T05:42:01.278Z,1.80
2023-05-07T05:44:09.821Z,1.50
2023-05-07T05:46:18.558Z,1.90
2023-05-07T05:48:27.321Z,1.33
2023-05-07T05:50:36.834Z,1.90
2023-05-07T05:52:45.583Z,1.60
2023-05-07T05:54:56.462Z,1.60
2023-05-07T05:57:05.533Z,1.70
2023-05-07T05:59:14.872Z,2.33
2023-05-07T06:01:23.616Z,1.00
2023-05-07T06:03:33.856Z,1.77
2023-05-07T06:05:42.566Z,1.33
2023-05-07T06:07:51.778Z,1.50
2023-05-07T06:10:02.071Z,1.50
2023-05-07T06:12:10.927Z,1.60
2023-05-07T06:14:19.701Z,1.43
2023-05-07T06:16:28.832Z,1.37
2023-05-07T06:18:38.559Z,1.60
2023-05-07T06:20:47.772Z,1.30
2023-05-07T06:22:56.722Z,1.47
2023-05-07T06:25:06.913Z,1.50
2023-05-07T06:27:16.021Z,1.40
2023-05-07T06:29:24.692Z,1.30
2023-05-07T06:31:34.040Z,1.40
2023-05-07T06:33:42.753Z,2.00
2023-05-07T06:35:51.874Z,1.50
2023-05-07T06:38:00.922Z,1.30
2023-05-07T06:40:13.003Z,1.30
2023-05-07T06:42:22.674Z,1.20
2023-05-07T06:44:31.216Z,1.30
2023-05-07T06:46:39.889Z,1.67
2023-05-07T06:48:48.599Z,1.60
2023-05-07T06:50:58.742Z,1.40
2023-05-07T06:53:07.552Z,1.27
2023-05-07T06:55:17.928Z,1.57
2023-05-07T06:57:26.955Z,1.47
2023-05-07T06:59:35.661Z,1.30
2023-05-07T07:01:44.761Z,1.30
2023-05-07T07:03:53.620Z,1.43
2023-05-07T07:06:03.169Z,1.30
2023-05-07T07:08:12.792Z,1.30
2023-05-07T07:10:23.649Z,1.43
2023-05-07T07:12:32.397Z,1.40
2023-05-07T07:14:41.296Z,1.40
2023-05-07T07:16:50.251Z,1.60
2023-05-07T07:18:59.075Z,1.33
2023-05-07T07:21:07.728Z,1.13
2023-05-07T07:23:16.985Z,1.30
2023-05-07T07:25:27.258Z,1.27
2023-05-07T07:27:36.032Z,1.37
2023-05-07T07:29:44.873Z,1.30
2023-05-07T07:31:53.899Z,1.30
2023-05-07T07:34:02.599Z,1.30
2023-05-07T07:36:11.320Z,1.30
2023-05-07T07:38:20.126Z,1.40
2023-05-07T07:40:31.258Z,1.67
2023-05-07T07:42:40.478Z,1.30
2023-05-07T07:44:49.509Z,1.40
2023-05-07T07:46:58.298Z,1.53
2023-05-07T07:49:07.377Z,1.20
2023-05-07T07:51:16.194Z,1.37
2023-05-07T07:53:25.017Z,1.40
2023-05-07T07:55:35.077Z,1.60
2023-05-07T07:57:43.804Z,1.20
2023-05-07T07:59:52.924Z,1.40
2023-05-07T08:02:01.701Z,1.30
2023-05-07T08:04:10.692Z,1.20
2023-05-07T08:06:19.949Z,1.30
2023-05-07T08:08:28.839Z,1.47
2023-05-07T08:10:40.292Z,1.30
2023-05-07T08:12:49.094Z,1.43
2023-05-07T08:14:57.700Z,1.60
2023-05-07T08:17:06.895Z,1.40
2023-05-07T08:19:15.987Z,1.20
2023-05-07T08:21:24.988Z,1.40
2023-05-07T08:23:35.515Z,1.30
2023-05-07T08:25:46.397Z,1.50
2023-05-07T08:27:55.491Z,1.30
2023-05-07T08:30:04.195Z,1.60
2023-05-07T08:32:13.220Z,1.47
2023-05-07T08:34:22.280Z,1.33
2023-05-07T08:36:30.857Z,1.30
2023-05-07T08:38:41.852Z,1.53
2023-05-07T08:40:52.271Z,1.33
2023-05-07T08:43:01.126Z,1.20
2023-05-07T08:45:12.821Z,1.50
2023-05-07T08:47:22.575Z,1.40
2023-05-07T08:49:32.339Z,1.40
2023-05-07T08:51:41.277Z,1.47
2023-05-07T08:53:51.300Z,1.80
2023-05-07T08:56:01.704Z,1.50
2023-05-07T08:58:10.952Z,1.50
2023-05-07T09:00:20.106Z,1.37
2023-05-07T09:02:29.139Z,1.70
2023-05-07T09:04:37.788Z,1.50
2023-05-07T09:06:49.185Z,1.80
2023-05-07T09:08:59.731Z,1.57
2023-05-07T09:11:10.998Z,1.50
2023-05-07T09:13:20.404Z,1.50
2023-05-07T09:15:29.173Z,1.43
2023-05-07T09:17:38.319Z,1.53
2023-05-07T09:19:47.622Z,1.47
2023-05-07T09:22:02.600Z,1.30
2023-05-07T09:24:12.125Z,1.30
2023-05-07T09:26:24.050Z,1.40
2023-05-07T09:28:34.169Z,1.40
2023-05-07T09:30:43.584Z,1.40
2023-05-07T09:32:52.813Z,1.50
2023-05-07T09:35:01.859Z,1.50
2023-05-07T09:37:10.922Z,1.57
2023-05-07T09:39:20.105Z,1.50
2023-05-07T09:41:30.681Z,1.10
2023-05-07T09:43:41.288Z,1.73
2023-05-07T09:45:52.713Z,1.40
2023-05-07T09:48:01.513Z,1.50
2023-05-07T09:50:12.212Z,1.10
2023-05-07T09:52:20.891Z,1.70
2023-05-07T09:54:30.513Z,1.13
2023-05-07T09:56:42.949Z,1.30
2023-05-07T09:58:52.888Z,1.30
2023-05-07T10:01:01.921Z,1.40
2023-05-07T10:03:12.758Z,1.40
2023-05-07T10:05:22.656Z,1.70
2023-05-07T10:07:31.576Z,1.70
2023-05-07T10:09:43.500Z,1.40
2023-05-07T10:11:54.251Z,1.50
2023-05-07T10:14:05.321Z,1.37
2023-05-07T10:16:14.245Z,1.50
2023-05-07T10:18:24.821Z,1.60
2023-05-07T10:20:34.547Z,1.67
2023-05-07T10:22:45.901Z,1.60
2023-05-07T10:24:55.842Z,1.33
2023-05-07T10:27:09.066Z,1.50
2023-05-07T10:29:21.527Z,1.47
2023-05-07T10:31:39.415Z,1.80
2023-05-07T10:33:50.420Z,1.10
2023-05-07T10:36:01.254Z,1.47
2023-05-07T10:38:10.797Z,1.60
2023-05-07T10:40:21.105Z,1.40
2023-05-07T10:42:31.963Z,1.50
2023-05-07T10:44:40.660Z,1.17
2023-05-07T10:47:06.811Z,1.60
2023-05-07T10:49:16.531Z,1.50
2023-05-07T10:51:25.387Z,1.50
2023-05-07T10:53:34.142Z,1.30
2023-05-07T10:55:43.144Z,1.50
2023-05-07T10:57:53.448Z,1.50
2023-05-07T11:00:02.573Z,1.27
2023-05-07T11:02:12.494Z,1.67
2023-05-07T11:04:25.780Z,1.40
2023-05-07T11:06:35.733Z,1.90
2023-05-07T11:08:57.252Z,1.40
2023-05-07T11:11:06.420Z,1.50
2023-05-07T11:13:17.618Z,1.50
2023-05-07T11:15:40.143Z,1.63
2023-05-07T11:17:56.358Z,1.40
2023-05-07T11:20:06.301Z,1.50
2023-05-07T11:22:29.803Z,1.37
2023-05-07T11:24:42.471Z,1.30
2023-05-07T11:26:51.955Z,1.37
2023-05-07T11:29:02.817Z,1.50
2023-05-07T11:31:11.988Z,1.40
2023-05-07T11:33:21.896Z,1.43
2023-05-07T11:35:30.831Z,1.40
2023-05-07T11:37:40.847Z,1.20
2023-05-07T11:39:49.739Z,1.40
2023-05-07T11:41:58.582Z,1.37
2023-05-07T11:44:09.316Z,1.50
2023-05-07T11:46:18.130Z,1.43
2023-05-07T11:48:27.066Z,1.67
2023-05-07T11:50:35.865Z,1.40
2023-05-07T11:52:53.124Z,1.30
2023-05-07T11:55:02.391Z,1.60
2023-05-07T11:57:17.570Z,1.43
2023-05-07T11:59:28.145Z,1.33
2023-05-07T12:01:39.509Z,1.40
2023-05-07T12:03:48.977Z,1.53
2023-05-07T12:05:58.210Z,1.30
2023-05-07T12:08:07.209Z,1.30
2023-05-07T12:10:16.064Z,1.10
2023-05-07T12:12:24.828Z,1.00
2023-05-07T12:14:35.659Z,1.40
2023-05-07T12:16:44.459Z,1.50
2023-05-07T12:18:53.811Z,1.43
2023-05-07T12:21:02.594Z,1.40
2023-05-07T12:23:11.359Z,1.53
2023-05-07T12:25:22.251Z,1.70
2023-05-07T12:27:31.698Z,1.30
2023-05-07T12:29:44.727Z,1.40
2023-05-07T12:31:53.845Z,1.50
2023-05-07T12:34:02.518Z,1.30
2023-05-07T12:36:11.771Z,1.47
2023-05-07T12:38:21.702Z,1.50
2023-05-07T12:40:38.845Z,1.17
2023-05-07T12:42:47.810Z,1.30
2023-05-07T12:44:58.228Z,1.40
2023-05-07T12:47:07.276Z,1.47
2023-05-07T12:49:16.293Z,1.60
2023-05-07T12:51:25.410Z,1.23
2023-05-07T12:53:34.334Z,1.37
2023-05-07T12:55:46.993Z,1.47
2023-05-07T12:57:58.602Z,1.37
2023-05-07T13:00:09.974Z,1.40
2023-05-07T13:02:18.642Z,1.30
2023-05-07T13:04:27.840Z,1.40
2023-05-07T13:06:36.914Z,1.40
2023-05-07T13:08:46.378Z,1.60
2023-05-07T13:10:55.350Z,1.33
2023-05-07T13:13:04.308Z,1.53
2023-05-07T13:15:15.974Z,1.63
2023-05-07T13:17:24.945Z,1.40
2023-05-07T13:19:33.881Z,1.23
2023-05-07T13:21:42.633Z,1.53
2023-05-07T13:23:51.687Z,2.30
2023-05-07T13:26:01.237Z,2.10
2023-05-07T13:28:13.649Z,1.73
2023-05-07T13:30:24.257Z,1.50
2023-05-07T13:32:33.845Z,1.30
2023-05-07T13:34:42.624Z,1.47
2023-05-07T13:36:51.920Z,1.33
2023-05-07T13:39:01.790Z,1.50
2023-05-07T13:41:10.457Z,1.40
2023-05-07T13:43:21.144Z,1.87
2023-05-07T13:45:32.140Z,1.80
2023-05-07T13:47:40.753Z,1.57
2023-05-07T13:49:51.590Z,1.60
2023-05-07T13:52:00.213Z,1.80
2023-05-07T13:54:08.994Z,1.40
2023-05-07T13:56:18.337Z,1.73
2023-05-07T13:58:27.407Z,1.47
2023-05-07T14:00:37.738Z,1.40
2023-05-07T14:02:46.832Z,1.30
2023-05-07T14:04:55.842Z,1.60
2023-05-07T14:07:04.477Z,1.50
2023-05-07T14:09:14.615Z,1.40
2023-05-07T14:11:23.825Z,1.53
2023-05-07T14:13:33.032Z,1.40
2023-05-07T14:15:47.604Z,1.93
2023-05-07T14:17:56.785Z,1.30
2023-05-07T14:20:07.433Z,1.53
2023-05-07T14:22:17.177Z,1.70
2023-05-07T14:24:37.542Z,1.60
2023-05-07T14:26:47.521Z,1.50
2023-05-07T14:28:58.341Z,1.40
2023-05-07T14:31:08.915Z,1.47
2023-05-07T14:33:17.636Z,1.50
2023-05-07T14:35:26.981Z,1.40
2023-05-07T14:37:35.740Z,1.60
2023-05-07T14:39:44.184Z,1.40
2023-05-07T14:41:53.101Z,2.53
2023-05-07T14:44:01.852Z,1.33
2023-05-07T14:46:11.881Z,1.43
2023-05-07T14:48:21.344Z,1.40
2023-05-07T14:50:30.749Z,1.50
2023-05-07T14:52:39.414Z,1.50
2023-05-07T14:54:48.232Z,1.40
2023-05-07T14:56:56.928Z,1.53
2023-05-07T14:59:06.038Z,1.60
2023-05-07T15:01:16.760Z,1.33
2023-05-07T15:03:25.913Z,1.50
2023-05-07T15:05:34.424Z,1.43
2023-05-07T15:07:43.986Z,1.80
2023-05-07T15:09:54.101Z,1.57
2023-05-07T15:12:03.317Z,1.60
2023-05-07T15:14:12.145Z,1.20
2023-05-07T15:16:22.041Z,1.80
2023-05-07T15:18:30.590Z,1.47
2023-05-07T15:20:39.637Z,1.43
2023-05-07T15:22:48.259Z,1.70
2023-05-07T15:24:58.070Z,1.53
2023-05-07T15:27:06.995Z,1.67
2023-05-07T15:29:15.609Z,1.47
2023-05-07T15:31:26.295Z,1.47
2023-05-07T15:33:35.154Z,1.50
2023-05-07T15:35:43.744Z,1.60
2023-05-07T15:37:52.812Z,1.60
2023-05-07T15:40:03.276Z,1.50
2023-05-07T15:42:11.968Z,1.50
2023-05-07T15:44:20.726Z,1.50
2023-05-07T15:46:30.809Z,1.57
2023-05-07T15:48:39.737Z,1.70
2023-05-07T15:50:48.888Z,1.70
2023-05-07T15:52:58.402Z,1.70
2023-05-07T15:55:08.232Z,1.80
2023-05-07T15:57:17.102Z,1.73
2023-05-07T15:59:26.640Z,1.60
2023-05-07T16:01:37.471Z,1.70
2023-05-07T16:03:46.522Z,1.60
2023-05-07T16:05:57.930Z,1.50
2023-05-07T16:08:07.356Z,1.67
2023-05-07T16:10:16.146Z,1.30
2023-05-07T16:12:24.736Z,1.40
2023-05-07T16:14:33.508Z,1.60
2023-05-07T16:16:43.528Z,1.60
2023-05-07T16:18:52.581Z,1.63
2023-05-07T16:21:01.465Z,1.50
2023-05-07T16:23:10.320Z,1.20
2023-05-07T16:25:18.945Z,1.43
2023-05-07T16:27:28.012Z,1.40
2023-05-07T16:29:37.544Z,1.50
2023-05-07T16:31:48.011Z,2.10
2023-05-07T16:33:57.328Z,1.40
2023-05-07T16:36:06.268Z,1.47
2023-05-07T16:38:14.967Z,1.50
2023-05-07T16:40:23.511Z,1.67
2023-05-07T16:42:32.464Z,1.90
2023-05-07T16:44:41.260Z,1.70
2023-05-07T16:46:53.395Z,1.50
2023-05-07T16:49:02.303Z,1.80
2023-05-07T16:51:11.504Z,2.20
2023-05-07T16:53:20.471Z,2.57
2023-05-07T16:55:30.930Z,1.50
2023-05-07T16:57:39.859Z,1.60
2023-05-07T16:59:48.383Z,1.37
2023-05-07T17:01:59.279Z,1.60
2023-05-07T17:04:08.352Z,1.50
2023-05-07T17:06:17.141Z,1.40
2023-05-07T17:08:26.217Z,1.90
2023-05-07T17:10:34.778Z,1.53
2023-05-07T17:12:43.362Z,1.50
2023-05-07T17:14:51.904Z,1.50
2023-05-07T17:17:02.003Z,1.40
2023-05-07T17:19:10.776Z,1.40
2023-05-07T17:21:19.694Z,1.33
2023-05-07T17:23:28.690Z,1.33
2023-05-07T17:25:38.317Z,1.40
2023-05-07T17:27:46.968Z,1.50
2023-05-07T17:29:56.600Z,1.50
2023-05-07T17:32:08.468Z,1.60
2023-05-07T17:34:17.300Z,1.77
2023-05-07T17:36:25.948Z,1.20
2023-05-07T17:38:34.756Z,1.40
2023-05-07T17:40:43.532Z,1.50
2023-05-07T17:42:55.023Z,1.50
2023-05-07T17:45:04.936Z,1.27
2023-05-07T17:47:15.915Z,1.50
2023-05-07T17:49:24.702Z,1.57
2023-05-07T17:51:42.473Z,1.67
2023-05-07T17:54:02.514Z,1.70
2023-05-07T17:56:11.045Z,1.43
2023-05-07T17:58:20.392Z,1.80
2023-05-07T18:00:29.346Z,1.50
2023-05-07T18:02:40.895Z,1.70
2023-05-07T18:04:50.260Z,1.40
2023-05-07T18:06:59.463Z,1.40
2023-05-07T18:09:08.460Z,1.30
2023-05-07T18:11:17.037Z,1.30
2023-05-07T18:13:25.800Z,1.40
2023-05-07T18:15:34.900Z,1.50
2023-05-07T18:17:45.519Z,1.50
2023-05-07T18:19:55.287Z,1.30
2023-05-07T18:22:04.549Z,1.90
2023-05-07T18:24:13.385Z,1.37
2023-05-07T18:26:22.410Z,1.60
2023-05-07T18:28:31.370Z,1.20
2023-05-07T18:30:40.472Z,1.63
2023-05-07T18:32:51.282Z,1.70
2023-05-07T18:35:00.341Z,1.60
2023-05-07T18:37:09.454Z,1.60
2023-05-07T18:39:17.995Z,1.57
2023-05-07T18:41:26.678Z,1.67
2023-05-07T18:43:36.028Z,1.53
2023-05-07T18:45:45.110Z,1.30
2023-05-07T18:47:56.037Z,1.60
2023-05-07T18:50:06.279Z,1.90
2023-05-07T18:52:17.990Z,1.53
2023-05-07T18:54:26.648Z,1.53
2023-05-07T18:56:35.868Z,1.60
2023-05-07T18:58:44.497Z,1.60
2023-05-07T19:00:53.467Z,1.40
2023-05-07T19:03:03.598Z,2.20
2023-05-07T19:05:12.610Z,1.53
2023-05-07T19:07:21.360Z,1.80
2023-05-07T19:09:30.344Z,1.67
2023-05-07T19:11:38.964Z,1.47
2023-05-07T19:13:47.883Z,1.50
2023-05-07T19:15:56.679Z,1.73
2023-05-07T19:18:07.564Z,1.40
2023-05-07T19:20:16.303Z,1.37
2023-05-07T19:22:25.137Z,1.30
2023-05-07T19:24:34.462Z,1.80
2023-05-07T19:26:43.121Z,1.53
2023-05-07T19:29:06.702Z,1.60
2023-05-07T19:31:21.684Z,1.70
2023-05-07T19:33:32.418Z,1.67
2023-05-07T19:35:41.291Z,1.73
2023-05-07T19:37:50.417Z,1.60
2023-05-07T19:40:05.078Z,1.40
2023-05-07T19:42:14.295Z,1.70
2023-05-07T19:44:23.759Z,1.70
2023-05-07T19:46:32.630Z,1.70
2023-05-07T19:48:42.981Z,1.77
2023-05-07T19:50:51.895Z,1.63
2023-05-07T19:53:00.821Z,1.47
2023-05-07T19:55:10.443Z,1.50
2023-05-07T19:57:19.219Z,1.40
2023-05-07T19:59:28.127Z,1.50
2023-05-07T20:01:39.117Z,1.60
2023-05-07T20:03:49.275Z,1.60
2023-05-07T20:05:58.027Z,1.50
2023-05-07T20:08:08.008Z,1.60
2023-05-07T20:10:16.761Z,1.50
2023-05-07T20:12:25.387Z,1.50
2023-05-07T20:14:34.350Z,1.40
2023-05-07T20:16:43.057Z,1.40
2023-05-07T20:18:53.286Z,1.90
2023-05-07T20:21:02.208Z,1.90
2023-05-07T20:23:11.265Z,1.93
2023-05-07T20:25:19.926Z,1.70
2023-05-07T20:27:28.646Z,1.50
2023-05-07T20:29:37.188Z,1.87
2023-05-07T20:31:45.999Z,1.53
2023-05-07T20:33:56.888Z,1.50
2023-05-07T20:36:05.888Z,1.33
2023-05-07T20:38:15.058Z,1.50
2023-05-07T20:40:24.221Z,1.53
2023-05-07T20:42:32.960Z,1.70
2023-05-07T20:44:41.767Z,1.70
2023-05-07T20:46:50.372Z,1.57
2023-05-07T20:49:01.087Z,1.50
2023-05-07T20:51:13.818Z,1.37
2023-05-07T20:53:22.452Z,1.63
2023-05-07T20:55:31.212Z,1.80
2023-05-07T20:57:39.770Z,1.53
2023-05-07T20:59:48.963Z,1.80
2023-05-07T21:01:57.990Z,1.87
2023-05-07T21:04:07.988Z,1.40
2023-05-07T21:06:16.521Z,1.60
2023-05-07T21:08:25.709Z,1.63
2023-05-07T21:10:35.195Z,1.40
2023-05-07T21:12:43.814Z,1.60
2023-05-07T21:14:52.577Z,1.70
2023-05-07T21:17:01.934Z,1.60
2023-05-07T21:19:12.211Z,1.90
2023-05-07T21:21:20.749Z,1.67
2023-05-07T21:23:29.765Z,1.90
2023-05-07T21:25:41.487Z,1.77
2023-05-07T21:27:50.539Z,1.70
2023-05-07T21:30:04.832Z,1.70
2023-05-07T21:32:14.101Z,1.60
2023-05-07T21:34:24.244Z,1.70
2023-05-07T21:36:33.635Z,1.57
2023-05-07T21:38:42.642Z,1.83
2023-05-07T21:40:51.641Z,1.90
2023-05-07T21:43:00.918Z,1.70
2023-05-07T21:45:10.030Z,1.60
2023-05-07T21:47:18.577Z,1.80
2023-05-07T21:49:28.503Z,1.70
2023-05-07T21:51:37.503Z,1.80
2023-05-07T21:53:46.278Z,1.90
2023-05-07T21:55:55.477Z,1.90
2023-05-07T21:58:05.992Z,1.93
2023-05-07T22:00:16.440Z,2.47
2023-05-07T22:02:26.045Z,2.10
2023-05-07T22:04:36.456Z,2.10
2023-05-07T22:06:45.577Z,2.27
2023-05-07T22:08:54.500Z,2.00
2023-05-07T22:11:03.396Z,2.13
2023-05-07T22:13:12.423Z,1.67
2023-05-07T22:15:21.832Z,2.20
2023-05-07T22:17:30.885Z,1.80
2023-05-07T22:19:41.410Z,2.00
2023-05-07T22:21:49.929Z,2.27
2023-05-07T22:23:58.832Z,2.30
2023-05-07T22:26:12.191Z,1.90
2023-05-07T22:28:21.596Z,2.00
2023-05-07T22:30:30.616Z,1.80
2023-05-07T22:32:39.985Z,1.77
2023-05-07T22:34:50.977Z,2.07
2023-05-07T22:36:59.600Z,1.70
2023-05-07T22:39:10.129Z,2.40
2023-05-07T22:41:18.694Z,1.90
2023-05-07T22:43:27.190Z,1.90
2023-05-07T22:45:36.234Z,2.10
2023-05-07T22:47:44.922Z,1.80
2023-05-07T22:49:55.209Z,1.90
2023-05-07T22:52:04.460Z,1.90
2023-05-07T22:54:13.239Z,1.80
2023-05-07T22:56:22.348Z,2.10
2023-05-07T22:58:31.225Z,1.90
2023-05-07T23:00:39.839Z,1.87
2023-05-07T23:02:49.041Z,2.10
2023-05-07T23:05:00.250Z,2.00
2023-05-07T23:07:08.772Z,2.10
2023-05-07T23:09:17.444Z,1.90
2023-05-07T23:11:26.510Z,1.77
2023-05-07T23:13:36.169Z,1.80
2023-05-07T23:15:45.194Z,1.90
2023-05-07T23:17:53.827Z,2.00
2023-05-07T23:20:04.139Z,2.00
2023-05-07T23:22:12.827Z,2.40
2023-05-07T23:24:21.436Z,2.00
2023-05-07T23:26:30.399Z,2.17
2023-05-07T23:28:39.254Z,2.03
2023-05-07T23:30:48.038Z,2.30
2023-05-07T23:32:57.083Z,2.30
2023-05-07T23:35:08.969Z,2.57
2023-05-07T23:37:17.901Z,2.00
2023-05-07T23:39:27.000Z,2.23
2023-05-07T23:41:36.160Z,2.20
2023-05-07T23:43:45.157Z,1.97
2023-05-07T23:45:54.318Z,1.90
2023-05-07T23:48:03.301Z,2.40
2023-05-07T23:50:14.004Z,1.83
2023-05-07T23:52:22.718Z,1.97
2023-05-07T23:54:31.997Z,1.87
2023-05-07T23:56:41.091Z,2.00
2023-05-07T23:58:50.194Z,1.70
